aviador You're here:

KMWA Decoded Metar

MARION REGIONAL in IL, USA
Report Time2018-01-19 10:35:00
UTC Time2018-01-19 10:59:54
Flight Rules vfr VFR
Wind200° at 08 kt
W.Decomp.*RWY 20: 8.0 kt HW 0.1 kt LCW
RWY 11: 0.1 kt HW 8.0 kt RCW
W.Rank200° ranks 2
Current wind is below 200° avg. (8.6)
Visibility9999 m
Phenomena:N/A
Clouds:N/A
Expected CloudBase > 1,200 ft AGL from Temp-Dew spread
CeilingNone
Temp-6°C (ISA -20)
Dew Point-9°C (80% RH)
AAT-11.9°C
QNH1023 hPa
Density Alt-2,310 ft
Elevation472 ft
Report Wrong Elevation
Raw Report
METAR KMWA 191035Z AUTO 20008KT 10SM CLR M06/M09 A3020 RMK AO2 T10571090=

Extra information for KMWA:More info

Metar Taf Metar & Taf Last 4 Metars F.Rules Stats Wind Profile Meteogram Temp Stats Airport Information Weather charts Add Link Nearby VenuesMetar ALERT Operation Metar Decoded Social comments

AIRNAV info for KMWA